sensor_id;sensor_type;location;lat;lon;timestamp;pressure;altitude;pressure_sealevel;temperature;humidity
20027;BME280;10174;42.688;23.344;2022-09-03T00:02:20;95293.25;;;16.28;83.37
20027;BME280;10174;42.688;23.344;2022-09-03T00:05:07;95283.59;;;16.08;83.81
20027;BME280;10174;42.688;23.344;2022-09-03T00:07:48;95288.63;;;16.00;83.68
20027;BME280;10174;42.688;23.344;2022-09-03T00:10:24;95302.50;;;16.13;84.04
20027;BME280;10174;42.688;23.344;2022-09-03T00:12:56;95254.66;;;15.89;83.72
20027;BME280;10174;42.688;23.344;2022-09-03T00:15:24;95310.94;;;16.25;83.43
20027;BME280;10174;42.688;23.344;2022-09-03T00:17:53;95309.03;;;16.26;83.47
20027;BME280;10174;42.688;23.344;2022-09-03T00:23:07;95277.78;;;16.00;82.73
20027;BME280;10174;42.688;23.344;2022-09-03T00:25:42;95299.56;;;16.09;83.17
20027;BME280;10174;42.688;23.344;2022-09-03T00:28:16;95267.13;;;15.90;83.69
20027;BME280;10174;42.688;23.344;2022-09-03T00:30:46;95292.13;;;16.01;83.41
20027;BME280;10174;42.688;23.344;2022-09-03T00:33:24;95285.78;;;15.92;84.02
20027;BME280;10174;42.688;23.344;2022-09-03T00:36:06;95286.41;;;16.02;82.81
20027;BME280;10174;42.688;23.344;2022-09-03T00:38:36;95282.97;;;15.97;82.95
20027;BME280;10174;42.688;23.344;2022-09-03T00:41:11;95289.72;;;16.13;82.67
20027;BME280;10174;42.688;23.344;2022-09-03T00:44:03;95294.25;;;16.04;82.60
20027;BME280;10174;42.688;23.344;2022-09-03T00:46:43;95224.16;;;15.50;83.13
20027;BME280;10174;42.688;23.344;2022-09-03T00:55:12;95296.06;;;16.09;82.33
20027;BME280;10174;42.688;23.344;2022-09-03T01:00:24;95284.75;;;15.88;83.06
20027;BME280;10174;42.688;23.344;2022-09-03T01:03:08;95305.34;;;15.89;83.25
20027;BME280;10174;42.688;23.344;2022-09-03T01:05:41;95298.84;;;15.90;83.27
20027;BME280;10174;42.688;23.344;2022-09-03T01:21:37;95299.56;;;15.76;83.29
20027;BME280;10174;42.688;23.344;2022-09-03T01:29:24;95312.00;;;15.77;83.61
20027;BME280;10174;42.688;23.344;2022-09-03T01:32:14;95312.00;;;15.77;83.77
20027;BME280;10174;42.688;23.344;2022-09-03T01:51:26;95308.66;;;15.47;84.03
20027;BME280;10174;42.688;23.344;2022-09-03T01:54:08;95314.53;;;15.55;84.11
20027;BME280;10174;42.688;23.344;2022-09-03T01:57:13;95318.31;;;15.54;83.82
20027;BME280;10174;42.688;23.344;2022-09-03T01:59:58;95316.66;;;15.58;84.43
20027;BME280;10174;42.688;23.344;2022-09-03T02:02:27;95316.16;;;15.70;83.81
20027;BME280;10174;42.688;23.344;2022-09-03T02:07:34;95309.06;;;15.74;83.51
20027;BME280;10174;42.688;23.344;2022-09-03T02:10:04;95305.13;;;15.66;83.39
20027;BME280;10174;42.688;23.344;2022-09-03T02:12:31;95310.75;;;15.70;83.39
20027;BME280;10174;42.688;23.344;2022-09-03T02:15:06;95310.34;;;15.62;83.22
20027;BME280;10174;42.688;23.344;2022-09-03T02:17:34;95323.59;;;15.64;83.17
20027;BME280;10174;42.688;23.344;2022-09-03T02:20:05;95337.63;;;15.66;83.39
20027;BME280;10174;42.688;23.344;2022-09-03T02:22:32;95315.31;;;15.55;83.53
20027;BME280;10174;42.688;23.344;2022-09-03T02:24:59;95333.81;;;15.67;82.82
20027;BME280;10174;42.688;23.344;2022-09-03T02:27:24;95234.09;;;15.03;83.23
20027;BME280;10174;42.688;23.344;2022-09-03T02:29:50;95322.94;;;15.53;83.65
20027;BME280;10174;42.688;23.344;2022-09-03T02:32:15;95332.94;;;15.53;83.52
20027;BME280;10174;42.688;23.344;2022-09-03T02:34:41;95333.97;;;15.57;83.58
20027;BME280;10174;42.688;23.344;2022-09-03T02:37:13;95331.19;;;15.62;83.40
20027;BME280;10174;42.688;23.344;2022-09-03T02:39:38;95329.59;;;15.61;83.58
20027;BME280;10174;42.688;23.344;2022-09-03T02:42:04;95329.50;;;15.66;82.81
20027;BME280;10174;42.688;23.344;2022-09-03T02:44:30;95317.28;;;15.49;82.91
20027;BME280;10174;42.688;23.344;2022-09-03T02:47:02;95323.78;;;15.67;82.53
20027;BME280;10174;42.688;23.344;2022-09-03T02:49:29;95282.88;;;15.36;82.67
20027;BME280;10174;42.688;23.344;2022-09-03T02:52:04;95348.16;;;15.67;82.67
20027;BME280;10174;42.688;23.344;2022-09-03T02:54:31;95347.88;;;15.69;83.03
20027;BME280;10174;42.688;23.344;2022-09-03T02:57:00;95326.28;;;15.64;82.44
20027;BME280;10174;42.688;23.344;2022-09-03T02:59:26;95320.94;;;15.59;82.54
20027;BME280;10174;42.688;23.344;2022-09-03T03:01:53;95313.34;;;15.42;82.89
20027;BME280;10174;42.688;23.344;2022-09-03T03:04:19;95323.94;;;15.57;82.53
20027;BME280;10174;42.688;23.344;2022-09-03T03:06:45;95290.41;;;15.39;82.67
20027;BME280;10174;42.688;23.344;2022-09-03T03:09:10;95326.94;;;15.56;82.79
20027;BME280;10174;42.688;23.344;2022-09-03T03:11:35;95329.28;;;15.62;82.51
20027;BME280;10174;42.688;23.344;2022-09-03T03:14:01;95317.28;;;15.49;82.71
20027;BME280;10174;42.688;23.344;2022-09-03T03:16:27;95341.41;;;15.65;82.51
20027;BME280;10174;42.688;23.344;2022-09-03T03:18:55;95329.75;;;15.50;82.59
20027;BME280;10174;42.688;23.344;2022-09-03T03:21:20;95322.00;;;15.44;83.05
20027;BME280;10174;42.688;23.344;2022-09-03T03:23:46;95332.94;;;15.53;83.03
20027;BME280;10174;42.688;23.344;2022-09-03T03:26:14;95330.53;;;15.51;82.93
20027;BME280;10174;42.688;23.344;2022-09-03T03:28:42;95243.28;;;15.02;82.97
20027;BME280;10174;42.688;23.344;2022-09-03T03:31:10;95336.75;;;15.71;82.83
20027;BME280;10174;42.688;23.344;2022-09-03T03:33:37;95312.16;;;15.48;82.45
20027;BME280;10174;42.688;23.344;2022-09-03T03:36:13;95342.66;;;15.73;81.79
20027;BME280;10174;42.688;23.344;2022-09-03T03:38:41;95343.34;;;15.83;81.54
20027;BME280;10174;42.688;23.344;2022-09-03T03:41:12;95325.75;;;15.62;82.22
20027;BME280;10174;42.688;23.344;2022-09-03T03:43:37;95328.06;;;15.55;82.22
20027;BME280;10174;42.688;23.344;2022-09-03T03:46:03;95333.63;;;15.44;82.48
20027;BME280;10174;42.688;23.344;2022-09-03T03:48:30;95337.56;;;15.52;82.74
20027;BME280;10174;42.688;23.344;2022-09-03T03:50:59;95320.94;;;15.59;81.83
20027;BME280;10174;42.688;23.344;2022-09-03T03:53:25;95318.56;;;15.71;81.53
20027;BME280;10174;42.688;23.344;2022-09-03T03:55:58;95327.09;;;15.83;81.34
20027;BME280;10174;42.688;23.344;2022-09-03T03:58:24;95344.56;;;15.72;81.58
20027;BME280;10174;42.688;23.344;2022-09-03T04:00:51;95250.53;;;15.07;82.00
20027;BME280;10174;42.688;23.344;2022-09-03T04:03:17;95270.94;;;15.18;82.08
20027;BME280;10174;42.688;23.344;2022-09-03T04:05:42;95318.91;;;15.50;81.94
20027;BME280;10174;42.688;23.344;2022-09-03T04:08:08;95344.66;;;15.67;81.85
20027;BME280;10174;42.688;23.344;2022-09-03T04:10:35;95321.53;;;15.56;81.94
20027;BME280;10174;42.688;23.344;2022-09-03T04:13:01;95329.88;;;15.78;81.67
20027;BME280;10174;42.688;23.344;2022-09-03T04:15:26;95341.44;;;15.84;81.22
20027;BME280;10174;42.688;23.344;2022-09-03T04:17:55;95258.34;;;15.08;81.59
20027;BME280;10174;42.688;23.344;2022-09-03T04:20:20;95343.78;;;15.53;81.78
20027;BME280;10174;42.688;23.344;2022-09-03T04:22:45;95325.66;;;15.53;81.99
20027;BME280;10174;42.688;23.344;2022-09-03T04:25:11;95348.00;;;15.59;81.84
20027;BME280;10174;42.688;23.344;2022-09-03T04:27:36;95333.03;;;15.47;82.03
20027;BME280;10174;42.688;23.344;2022-09-03T04:30:02;95342.25;;;15.46;81.87
20027;BME280;10174;42.688;23.344;2022-09-03T04:32:28;95350.91;;;15.48;82.32
20027;BME280;10174;42.688;23.344;2022-09-03T04:35:11;95336.53;;;15.48;81.99
20027;BME280;10174;42.688;23.344;2022-09-03T04:37:37;95346.94;;;15.60;81.91
20027;BME280;10174;42.688;23.344;2022-09-03T04:40:03;95331.50;;;15.41;81.44
20027;BME280;10174;42.688;23.344;2022-09-03T04:42:28;95350.00;;;15.53;81.72
20027;BME280;10174;42.688;23.344;2022-09-03T04:44:54;95377.78;;;15.59;81.97
20027;BME280;10174;42.688;23.344;2022-09-03T04:47:19;95360.25;;;15.56;81.42
20027;BME280;10174;42.688;23.344;2022-09-03T04:49:44;95348.53;;;15.61;81.39
20027;BME280;10174;42.688;23.344;2022-09-03T04:52:11;95383.69;;;15.85;81.07
20027;BME280;10174;42.688;23.344;2022-09-03T04:54:36;95382.66;;;15.81;81.28
20027;BME280;10174;42.688;23.344;2022-09-03T04:57:02;95384.56;;;15.80;80.58
20027;BME280;10174;42.688;23.344;2022-09-03T04:59:27;95405.56;;;15.89;80.62
20027;BME280;10174;42.688;23.344;2022-09-03T05:01:52;95382.97;;;15.74;80.84
20027;BME280;10174;42.688;23.344;2022-09-03T05:04:19;95394.22;;;15.87;80.70
20027;BME280;10174;42.688;23.344;2022-09-03T05:06:45;95385.19;;;15.72;80.71
20027;BME280;10174;42.688;23.344;2022-09-03T05:09:10;95389.50;;;15.54;80.84
20027;BME280;10174;42.688;23.344;2022-09-03T05:11:36;95400.19;;;15.64;81.18
20027;BME280;10174;42.688;23.344;2022-09-03T05:14:01;95405.91;;;15.63;81.30
20027;BME280;10174;42.688;23.344;2022-09-03T05:16:28;95392.09;;;15.45;81.35
20027;BME280;10174;42.688;23.344;2022-09-03T05:18:55;95400.88;;;15.56;81.72
20027;BME280;10174;42.688;23.344;2022-09-03T05:21:23;95389.16;;;15.61;81.21
20027;BME280;10174;42.688;23.344;2022-09-03T05:23:50;95404.94;;;15.73;80.65
20027;BME280;10174;42.688;23.344;2022-09-03T05:26:27;95408.03;;;15.66;80.33
20027;BME280;10174;42.688;23.344;2022-09-03T05:29:03;95405.72;;;15.78;80.36
20027;BME280;10174;42.688;23.344;2022-09-03T05:31:34;95386.22;;;15.76;80.17
20027;BME280;10174;42.688;23.344;2022-09-03T05:34:02;95397.16;;;15.90;79.45
20027;BME280;10174;42.688;23.344;2022-09-03T05:36:30;95403.78;;;15.98;79.69
20027;BME280;10174;42.688;23.344;2022-09-03T05:38:57;95409.22;;;15.98;79.75
20027;BME280;10174;42.688;23.344;2022-09-03T05:41:23;95414.38;;;16.13;78.90
20027;BME280;10174;42.688;23.344;2022-09-03T05:43:51;95403.06;;;16.11;78.75
20027;BME280;10174;42.688;23.344;2022-09-03T05:46:21;95394.88;;;15.78;80.09
20027;BME280;10174;42.688;23.344;2022-09-03T05:48:50;95403.75;;;15.84;79.82
20027;BME280;10174;42.688;23.344;2022-09-03T05:51:16;95405.41;;;15.99;79.03
20027;BME280;10174;42.688;23.344;2022-09-03T05:53:46;95374.44;;;15.67;79.43
20027;BME280;10174;42.688;23.344;2022-09-03T05:56:17;95413.69;;;16.21;78.41
20027;BME280;10174;42.688;23.344;2022-09-03T05:58:48;95417.84;;;16.19;78.86
20027;BME280;10174;42.688;23.344;2022-09-03T06:03:41;95386.69;;;15.83;79.29
20027;BME280;10174;42.688;23.344;2022-09-03T06:06:07;95421.50;;;16.09;79.35
20027;BME280;10174;42.688;23.344;2022-09-03T06:08:34;95428.63;;;16.38;78.38
20027;BME280;10174;42.688;23.344;2022-09-03T06:11:00;95434.91;;;16.52;77.08
20027;BME280;10174;42.688;23.344;2022-09-03T06:13:27;95427.38;;;16.63;76.44
20027;BME280;10174;42.688;23.344;2022-09-03T06:16:01;95420.47;;;16.38;77.12
20027;BME280;10174;42.688;23.344;2022-09-03T06:18:27;95433.22;;;16.24;77.87
20027;BME280;10174;42.688;23.344;2022-09-03T06:20:55;95437.09;;;16.50;77.56
20027;BME280;10174;42.688;23.344;2022-09-03T06:23:22;95441.75;;;16.64;76.84
20027;BME280;10174;42.688;23.344;2022-09-03T06:25:47;95426.47;;;16.54;77.19
20027;BME280;10174;42.688;23.344;2022-09-03T06:28:13;95437.34;;;16.68;76.96
20027;BME280;10174;42.688;23.344;2022-09-03T06:30:39;95417.16;;;16.74;76.38
20027;BME280;10174;42.688;23.344;2022-09-03T06:33:06;95393.03;;;16.72;75.61
20027;BME280;10174;42.688;23.344;2022-09-03T06:35:31;95422.81;;;16.91;75.89
20027;BME280;10174;42.688;23.344;2022-09-03T06:37:56;95436.06;;;17.21;75.73
20027;BME280;10174;42.688;23.344;2022-09-03T06:40:22;95363.88;;;16.50;75.53
20027;BME280;10174;42.688;23.344;2022-09-03T06:42:57;95424.88;;;16.67;76.82
20027;BME280;10174;42.688;23.344;2022-09-03T06:45:26;95438.59;;;16.89;76.24
20027;BME280;10174;42.688;23.344;2022-09-03T06:47:52;95427.84;;;16.98;75.25
20027;BME280;10174;42.688;23.344;2022-09-03T06:50:18;95430.75;;;17.02;75.52
20027;BME280;10174;42.688;23.344;2022-09-03T06:52:43;95407.44;;;17.15;74.38
20027;BME280;10174;42.688;23.344;2022-09-03T06:55:08;95426.34;;;17.34;74.00
20027;BME280;10174;42.688;23.344;2022-09-03T06:57:34;95434.59;;;17.29;74.39
20027;BME280;10174;42.688;23.344;2022-09-03T06:59:59;95419.41;;;17.27;73.98
20027;BME280;10174;42.688;23.344;2022-09-03T07:02:27;95444.81;;;17.59;73.72
20027;BME280;10174;42.688;23.344;2022-09-03T07:04:52;95432.81;;;17.60;73.62
20027;BME280;10174;42.688;23.344;2022-09-03T07:07:17;95431.28;;;17.82;73.66
20027;BME280;10174;42.688;23.344;2022-09-03T07:09:43;95423.44;;;17.94;72.58
20027;BME280;10174;42.688;23.344;2022-09-03T07:12:08;95437.13;;;17.89;72.98
20027;BME280;10174;42.688;23.344;2022-09-03T07:14:36;95440.63;;;18.26;72.17
20027;BME280;10174;42.688;23.344;2022-09-03T07:17:01;95450.97;;;18.02;72.50
20027;BME280;10174;42.688;23.344;2022-09-03T07:19:26;95454.38;;;18.07;72.13
20027;BME280;10174;42.688;23.344;2022-09-03T07:21:52;95451.75;;;17.66;73.62
20027;BME280;10174;42.688;23.344;2022-09-03T07:24:18;95439.75;;;17.67;73.56
20027;BME280;10174;42.688;23.344;2022-09-03T07:26:46;95443.56;;;17.93;72.88
20027;BME280;10174;42.688;23.344;2022-09-03T07:29:13;95406.72;;;17.87;72.26
20027;BME280;10174;42.688;23.344;2022-09-03T07:31:41;95460.88;;;18.43;71.49
20027;BME280;10174;42.688;23.344;2022-09-03T07:34:10;95468.94;;;18.48;71.00
20027;BME280;10174;42.688;23.344;2022-09-03T07:36:40;95469.91;;;18.52;71.11
20027;BME280;10174;42.688;23.344;2022-09-03T07:39:07;95470.88;;;18.56;70.48
20027;BME280;10174;42.688;23.344;2022-09-03T07:41:33;95451.97;;;18.28;70.20
20027;BME280;10174;42.688;23.344;2022-09-03T07:43:59;95467.34;;;18.78;70.27
20027;BME280;10174;42.688;23.344;2022-09-03T07:46:31;95467.72;;;19.17;68.46
20027;BME280;10174;42.688;23.344;2022-09-03T07:48:59;95453.53;;;18.97;69.05
20027;BME280;10174;42.688;23.344;2022-09-03T07:51:28;95472.47;;;19.51;67.79
20027;BME280;10174;42.688;23.344;2022-09-03T07:53:57;95466.88;;;19.48;67.31
20027;BME280;10174;42.688;23.344;2022-09-03T07:56:23;95482.97;;;19.27;67.74
20027;BME280;10174;42.688;23.344;2022-09-03T07:58:49;95471.50;;;18.98;69.64
20027;BME280;10174;42.688;23.344;2022-09-03T08:01:17;95419.97;;;18.48;69.33
20027;BME280;10174;42.688;23.344;2022-09-03T08:03:46;95475.38;;;18.83;68.78
20027;BME280;10174;42.688;23.344;2022-09-03T08:06:13;95479.28;;;18.68;69.37
20027;BME280;10174;42.688;23.344;2022-09-03T08:08:40;95480.22;;;18.86;68.94
20027;BME280;10174;42.688;23.344;2022-09-03T08:11:07;95477.25;;;18.97;68.91
20027;BME280;10174;42.688;23.344;2022-09-03T08:13:36;95465.84;;;18.95;69.77
20027;BME280;10174;42.688;23.344;2022-09-03T08:16:02;95485.88;;;19.30;68.43
20027;BME280;10174;42.688;23.344;2022-09-03T08:18:27;95478.78;;;19.20;67.71
20027;BME280;10174;42.688;23.344;2022-09-03T08:20:58;95399.72;;;18.63;67.46
20027;BME280;10174;42.688;23.344;2022-09-03T08:23:23;95469.56;;;19.39;66.71
20027;BME280;10174;42.688;23.344;2022-09-03T08:25:59;95467.63;;;19.31;66.69
20027;BME280;10174;42.688;23.344;2022-09-03T08:28:26;95478.34;;;19.85;65.33
20027;BME280;10174;42.688;23.344;2022-09-03T08:30:52;95469.56;;;20.05;64.80
20027;BME280;10174;42.688;23.344;2022-09-03T08:33:17;95467.47;;;20.72;62.65
20027;BME280;10174;42.688;23.344;2022-09-03T08:36:06;95457.81;;;20.75;62.59
20027;BME280;10174;42.688;23.344;2022-09-03T08:38:32;95465.22;;;20.48;62.87
20027;BME280;10174;42.688;23.344;2022-09-03T08:46:19;95471.66;;;20.00;64.24
20027;BME280;10174;42.688;23.344;2022-09-03T08:48:48;95479.03;;;20.25;64.88
20027;BME280;10174;42.688;23.344;2022-09-03T08:51:14;95462.97;;;20.06;64.31
20027;BME280;10174;42.688;23.344;2022-09-03T08:53:47;95464.75;;;20.37;64.00
20027;BME280;10174;42.688;23.344;2022-09-03T08:56:26;95460.59;;;20.66;61.67
20027;BME280;10174;42.688;23.344;2022-09-03T08:58:53;95474.50;;;20.91;60.67
20027;BME280;10174;42.688;23.344;2022-09-03T09:06:51;95395.88;;;21.14;60.51
20027;BME280;10174;42.688;23.344;2022-09-03T09:14:49;95481.59;;;20.31;63.07
20027;BME280;10174;42.688;23.344;2022-09-03T09:22:33;95466.66;;;20.80;62.23
20027;BME280;10174;42.688;23.344;2022-09-03T09:25:03;95478.25;;;21.93;58.71
20027;BME280;10174;42.688;23.344;2022-09-03T09:27:33;95441.75;;;22.10;57.50
20027;BME280;10174;42.688;23.344;2022-09-03T09:30:00;95487.31;;;21.46;59.24
20027;BME280;10174;42.688;23.344;2022-09-03T09:32:28;95487.75;;;21.57;58.85
20027;BME280;10174;42.688;23.344;2022-09-03T09:34:56;95400.72;;;21.68;58.11
20027;BME280;10174;42.688;23.344;2022-09-03T09:37:21;95455.16;;;22.66;56.32
20027;BME280;10174;42.688;23.344;2022-09-03T09:39:58;95478.59;;;22.88;56.24
20027;BME280;10174;42.688;23.344;2022-09-03T09:42:25;95474.84;;;22.59;57.54
20027;BME280;10174;42.688;23.344;2022-09-03T09:44:51;95477.84;;;22.24;59.43
20027;BME280;10174;42.688;23.344;2022-09-03T09:47:38;95445.38;;;21.42;61.18
20027;BME280;10174;42.688;23.344;2022-09-03T09:50:16;95474.84;;;21.96;59.86
20027;BME280;10174;42.688;23.344;2022-09-03T09:52:41;95482.81;;;22.52;58.17
20027;BME280;10174;42.688;23.344;2022-09-03T09:55:18;95487.34;;;22.48;57.62
20027;BME280;10174;42.688;23.344;2022-09-03T09:57:44;95472.47;;;22.16;57.80
20027;BME280;10174;42.688;23.344;2022-09-03T10:00:13;95495.53;;;23.48;56.68
20027;BME280;10174;42.688;23.344;2022-09-03T10:02:47;95493.59;;;25.24;49.45
20027;BME280;10174;42.688;23.344;2022-09-03T10:05:24;95490.63;;;25.29;49.21
20027;BME280;10174;42.688;23.344;2022-09-03T10:07:58;95473.16;;;26.99;45.13
20027;BME280;10174;42.688;23.344;2022-09-03T10:10:25;95475.16;;;26.79;45.55
20027;BME280;10174;42.688;23.344;2022-09-03T10:13:12;95478.44;;;26.29;47.85
20027;BME280;10174;42.688;23.344;2022-09-03T10:18:43;95482.16;;;26.02;47.75
20027;BME280;10174;42.688;23.344;2022-09-03T10:21:21;95472.22;;;26.52;47.09
20027;BME280;10174;42.688;23.344;2022-09-03T10:23:58;95467.44;;;27.31;44.72
20027;BME280;10174;42.688;23.344;2022-09-03T10:26:26;95469.09;;;27.35;43.30
20027;BME280;10174;42.688;23.344;2022-09-03T10:29:05;95465.94;;;26.71;45.50
20027;BME280;10174;42.688;23.344;2022-09-03T10:32:06;95471.56;;;28.17;42.19
20027;BME280;10174;42.688;23.344;2022-09-03T10:37:54;95404.06;;;27.84;40.96
20027;BME280;10174;42.688;23.344;2022-09-03T10:40:34;95432.38;;;28.08;40.62
20027;BME280;10174;42.688;23.344;2022-09-03T10:46:09;95463.00;;;28.90;39.25
20027;BME280;10174;42.688;23.344;2022-09-03T10:51:37;95474.97;;;28.64;41.46
20027;BME280;10174;42.688;23.344;2022-09-03T10:57:06;95475.69;;;27.77;41.06
20027;BME280;10174;42.688;23.344;2022-09-03T11:05:20;95461.53;;;28.63;39.96
20027;BME280;10174;42.688;23.344;2022-09-03T11:07:53;95468.75;;;28.14;41.03
20027;BME280;10174;42.688;23.344;2022-09-03T11:10:28;95456.59;;;28.79;39.30
20027;BME280;10174;42.688;23.344;2022-09-03T11:15:53;95463.59;;;28.39;40.71
20027;BME280;10174;42.688;23.344;2022-09-03T11:18:27;95410.78;;;28.48;39.68
20027;BME280;10174;42.688;23.344;2022-09-03T11:20:56;95475.81;;;28.11;41.09
20027;BME280;10174;42.688;23.344;2022-09-03T11:23:31;95474.66;;;29.44;38.23
20027;BME280;10174;42.688;23.344;2022-09-03T11:26:01;95472.38;;;28.48;40.05
20027;BME280;10174;42.688;23.344;2022-09-03T11:28:43;95461.50;;;28.02;42.00
20027;BME280;10174;42.688;23.344;2022-09-03T11:34:13;95464.31;;;29.00;39.83
20027;BME280;10174;42.688;23.344;2022-09-03T11:36:39;95434.72;;;29.42;38.05
20027;BME280;10174;42.688;23.344;2022-09-03T11:39:19;95462.06;;;30.02;37.89
20027;BME280;10174;42.688;23.344;2022-09-03T11:41:58;95450.63;;;29.14;38.53
20027;BME280;10174;42.688;23.344;2022-09-03T11:44:23;95445.00;;;29.45;38.76
20027;BME280;10174;42.688;23.344;2022-09-03T11:47:13;95459.03;;;30.26;36.94
20027;BME280;10174;42.688;23.344;2022-09-03T11:49:47;95398.09;;;30.29;37.35
20027;BME280;10174;42.688;23.344;2022-09-03T11:52:28;95461.31;;;30.06;37.32
20027;BME280;10174;42.688;23.344;2022-09-03T11:54:54;95445.28;;;28.95;39.85
20027;BME280;10174;42.688;23.344;2022-09-03T11:57:27;95461.56;;;28.66;40.58
20027;BME280;10174;42.688;23.344;2022-09-03T11:59:53;95365.25;;;26.97;42.12
20027;BME280;10174;42.688;23.344;2022-09-03T12:02:26;95441.00;;;27.30;44.02
20027;BME280;10174;42.688;23.344;2022-09-03T12:10:02;95442.41;;;25.99;46.41
20027;BME280;10174;42.688;23.344;2022-09-03T12:18:03;95429.31;;;24.12;51.14
20027;BME280;10174;42.688;23.344;2022-09-03T12:21:05;95448.31;;;23.92;52.47
20027;BME280;10174;42.688;23.344;2022-09-03T12:23:50;95439.97;;;24.01;51.91
20027;BME280;10174;42.688;23.344;2022-09-03T12:26:22;95409.63;;;24.22;51.55
20027;BME280;10174;42.688;23.344;2022-09-03T12:28:59;95427.50;;;24.04;51.62
20027;BME280;10174;42.688;23.344;2022-09-03T12:31:30;95422.75;;;23.51;52.92
20027;BME280;10174;42.688;23.344;2022-09-03T12:34:05;95417.72;;;23.28;54.20
20027;BME280;10174;42.688;23.344;2022-09-03T12:36:39;95439.44;;;23.34;53.44
20027;BME280;10174;42.688;23.344;2022-09-03T12:42:03;95441.03;;;23.59;53.83
20027;BME280;10174;42.688;23.344;2022-09-03T12:47:10;95436.69;;;23.71;52.71
20027;BME280;10174;42.688;23.344;2022-09-03T12:49:40;95413.94;;;23.45;54.42
20027;BME280;10174;42.688;23.344;2022-09-03T12:52:23;95341.22;;;22.74;54.10
20027;BME280;10174;42.688;23.344;2022-09-03T12:55:03;95337.56;;;22.82;54.09
20027;BME280;10174;42.688;23.344;2022-09-03T12:57:51;95404.50;;;23.43;53.30
20027;BME280;10174;42.688;23.344;2022-09-03T13:00:26;95419.78;;;23.32;53.20
20027;BME280;10174;42.688;23.344;2022-09-03T13:03:01;95419.53;;;23.00;52.62
20027;BME280;10174;42.688;23.344;2022-09-03T13:05:42;95412.44;;;22.99;51.79
20027;BME280;10174;42.688;23.344;2022-09-03T13:08:12;95414.53;;;23.14;53.11
20027;BME280;10174;42.688;23.344;2022-09-03T13:10:40;95397.38;;;23.05;53.72
20027;BME280;10174;42.688;23.344;2022-09-03T13:13:28;95412.47;;;23.36;54.67
20027;BME280;10174;42.688;23.344;2022-09-03T13:35:35;95391.34;;;23.36;54.11
20027;BME280;10174;42.688;23.344;2022-09-03T13:40:44;95372.16;;;23.36;52.34
20027;BME280;10174;42.688;23.344;2022-09-03T13:43:36;95389.88;;;23.39;51.89
20027;BME280;10174;42.688;23.344;2022-09-03T13:46:15;95376.75;;;23.20;52.40
20027;BME280;10174;42.688;23.344;2022-09-03T13:48:43;95331.41;;;22.85;52.38
20027;BME280;10174;42.688;23.344;2022-09-03T13:54:45;95388.47;;;23.57;52.09
20027;BME280;10174;42.688;23.344;2022-09-03T13:57:31;95380.03;;;23.13;51.34
20027;BME280;10174;42.688;23.344;2022-09-03T14:00:11;95380.97;;;23.17;51.24
20027;BME280;10174;42.688;23.344;2022-09-03T14:11:31;95398.31;;;23.46;50.76
20027;BME280;10174;42.688;23.344;2022-09-03T14:22:22;95402.66;;;23.10;52.26
20027;BME280;10174;42.688;23.344;2022-09-03T14:25:03;95364.78;;;23.12;51.65
20027;BME280;10174;42.688;23.344;2022-09-03T14:27:33;95384.28;;;23.23;52.10
20027;BME280;10174;42.688;23.344;2022-09-03T14:30:06;95383.72;;;23.17;53.33
20027;BME280;10174;42.688;23.344;2022-09-03T14:33:11;95393.63;;;23.46;52.06
20027;BME280;10174;42.688;23.344;2022-09-03T14:35:49;95390.78;;;23.55;51.96
20027;BME280;10174;42.688;23.344;2022-09-03T14:41:18;95381.19;;;23.49;51.21
20027;BME280;10174;42.688;23.344;2022-09-03T14:44:15;95379.81;;;23.55;51.01
20027;BME280;10174;42.688;23.344;2022-09-03T14:49:38;95381.81;;;23.83;51.36
20027;BME280;10174;42.688;23.344;2022-09-03T14:58:06;95393.41;;;23.15;58.50
20027;BME280;10174;42.688;23.344;2022-09-03T15:11:15;95362.22;;;23.44;53.03
20027;BME280;10174;42.688;23.344;2022-09-03T15:13:47;95371.13;;;23.53;53.24
20027;BME280;10174;42.688;23.344;2022-09-03T15:21:53;95403.41;;;23.72;58.61
20027;BME280;10174;42.688;23.344;2022-09-03T15:29:47;95411.47;;;22.70;59.53
20027;BME280;10174;42.688;23.344;2022-09-03T15:42:50;95352.66;;;22.21;61.44
20027;BME280;10174;42.688;23.344;2022-09-03T15:50:57;95428.22;;;22.35;62.38
20027;BME280;10174;42.688;23.344;2022-09-03T15:54:22;95439.41;;;22.00;63.59
20027;BME280;10174;42.688;23.344;2022-09-03T15:57:03;95447.44;;;22.05;64.18
20027;BME280;10174;42.688;23.344;2022-09-03T15:59:59;95420.72;;;22.23;62.81
20027;BME280;10174;42.688;23.344;2022-09-03T16:02:52;95429.81;;;21.94;63.52
20027;BME280;10174;42.688;23.344;2022-09-03T16:05:25;95439.69;;;21.86;64.38
20027;BME280;10174;42.688;23.344;2022-09-03T16:08:16;95439.47;;;21.91;65.31
20027;BME280;10174;42.688;23.344;2022-09-03T16:16:03;95446.94;;;22.03;63.80
20027;BME280;10174;42.688;23.344;2022-09-03T16:19:00;95446.66;;;21.06;65.57
20027;BME280;10174;42.688;23.344;2022-09-03T16:21:41;95453.19;;;20.75;66.29
20027;BME280;10174;42.688;23.344;2022-09-03T16:24:15;95464.25;;;20.61;67.30
20027;BME280;10174;42.688;23.344;2022-09-03T16:26:59;95466.81;;;20.58;67.27
20027;BME280;10174;42.688;23.344;2022-09-03T16:29:29;95465.41;;;20.69;68.21
20027;BME280;10174;42.688;23.344;2022-09-03T16:32:34;95470.22;;;20.72;67.07
20027;BME280;10174;42.688;23.344;2022-09-03T16:35:26;95438.28;;;20.29;67.63
20027;BME280;10174;42.688;23.344;2022-09-03T16:52:14;95454.31;;;19.96;68.15
20027;BME280;10174;42.688;23.344;2022-09-03T17:00:10;95455.94;;;20.05;67.82
20027;BME280;10174;42.688;23.344;2022-09-03T17:08:42;95503.88;;;20.06;68.59
20027;BME280;10174;42.688;23.344;2022-09-03T17:24:42;95513.63;;;19.81;69.21
20027;BME280;10174;42.688;23.344;2022-09-03T17:27:33;95520.31;;;19.75;69.42